sensor_id;sensor_type;location;lat;lon;timestamp;P1;durP1;ratioP1;P2;durP2;ratioP2
20411;SDS011;10365;52.578;8.138;2023-03-15T00:01:57;8.32;;;1.40;;
20411;SDS011;10365;52.578;8.138;2023-03-15T00:04:22;11.00;;;1.25;;
20411;SDS011;10365;52.578;8.138;2023-03-15T00:06:50;7.47;;;1.00;;
20411;SDS011;10365;52.578;8.138;2023-03-15T00:09:15;11.60;;;1.33;;
20411;SDS011;10365;52.578;8.138;2023-03-15T00:11:41;9.25;;;1.48;;
20411;SDS011;10365;52.578;8.138;2023-03-15T00:14:06;6.88;;;1.60;;
20411;SDS011;10365;52.578;8.138;2023-03-15T00:16:31;7.45;;;1.30;;
20411;SDS011;10365;52.578;8.138;2023-03-15T00:18:57;7.63;;;1.55;;
20411;SDS011;10365;52.578;8.138;2023-03-15T00:21:22;7.03;;;1.20;;
20411;SDS011;10365;52.578;8.138;2023-03-15T00:23:48;3.65;;;1.10;;
20411;SDS011;10365;52.578;8.138;2023-03-15T00:26:13;7.65;;;1.30;;
20411;SDS011;10365;52.578;8.138;2023-03-15T00:28:39;6.13;;;1.20;;
20411;SDS011;10365;52.578;8.138;2023-03-15T00:31:06;13.35;;;1.27;;
20411;SDS011;10365;52.578;8.138;2023-03-15T00:33:31;11.05;;;2.17;;
20411;SDS011;10365;52.578;8.138;2023-03-15T00:36:01;7.75;;;0.98;;
20411;SDS011;10365;52.578;8.138;2023-03-15T00:38:26;9.27;;;1.38;;
20411;SDS011;10365;52.578;8.138;2023-03-15T00:40:52;7.32;;;1.63;;
20411;SDS011;10365;52.578;8.138;2023-03-15T00:43:17;13.30;;;1.80;;
20411;SDS011;10365;52.578;8.138;2023-03-15T00:45:42;12.02;;;1.38;;
20411;SDS011;10365;52.578;8.138;2023-03-15T00:48:09;8.48;;;1.30;;
20411;SDS011;10365;52.578;8.138;2023-03-15T00:50:34;12.38;;;1.27;;
20411;SDS011;10365;52.578;8.138;2023-03-15T00:53:00;7.20;;;1.27;;
20411;SDS011;10365;52.578;8.138;2023-03-15T00:55:26;9.32;;;1.45;;
20411;SDS011;10365;52.578;8.138;2023-03-15T00:57:52;6.78;;;1.02;;
20411;SDS011;10365;52.578;8.138;2023-03-15T01:00:18;12.02;;;1.55;;
20411;SDS011;10365;52.578;8.138;2023-03-15T01:02:44;5.88;;;1.60;;
20411;SDS011;10365;52.578;8.138;2023-03-15T01:05:10;6.15;;;1.42;;
20411;SDS011;10365;52.578;8.138;2023-03-15T01:07:36;10.68;;;1.50;;
20411;SDS011;10365;52.578;8.138;2023-03-15T01:10:03;8.40;;;1.80;;
20411;SDS011;10365;52.578;8.138;2023-03-15T01:12:29;13.77;;;1.85;;
20411;SDS011;10365;52.578;8.138;2023-03-15T01:14:56;6.20;;;1.35;;
20411;SDS011;10365;52.578;8.138;2023-03-15T01:17:22;8.63;;;1.48;;
20411;SDS011;10365;52.578;8.138;2023-03-15T01:19:47;6.80;;;1.98;;
20411;SDS011;10365;52.578;8.138;2023-03-15T01:22:12;10.15;;;2.20;;
20411;SDS011;10365;52.578;8.138;2023-03-15T01:24:38;7.20;;;2.05;;
20411;SDS011;10365;52.578;8.138;2023-03-15T01:27:03;5.18;;;2.03;;
20411;SDS011;10365;52.578;8.138;2023-03-15T01:29:29;8.40;;;2.25;;
20411;SDS011;10365;52.578;8.138;2023-03-15T01:31:54;5.75;;;1.90;;
20411;SDS011;10365;52.578;8.138;2023-03-15T01:34:20;8.63;;;2.65;;
20411;SDS011;10365;52.578;8.138;2023-03-15T01:36:48;15.52;;;3.35;;
20411;SDS011;10365;52.578;8.138;2023-03-15T01:39:13;5.82;;;2.90;;
20411;SDS011;10365;52.578;8.138;2023-03-15T01:41:42;8.43;;;3.20;;
20411;SDS011;10365;52.578;8.138;2023-03-15T01:44:14;9.77;;;3.15;;
20411;SDS011;10365;52.578;8.138;2023-03-15T01:46:40;10.60;;;3.40;;
20411;SDS011;10365;52.578;8.138;2023-03-15T01:49:31;7.50;;;3.15;;
20411;SDS011;10365;52.578;8.138;2023-03-15T01:52:08;5.57;;;3.60;;
20411;SDS011;10365;52.578;8.138;2023-03-15T01:55:04;8.18;;;3.20;;
20411;SDS011;10365;52.578;8.138;2023-03-15T01:57:34;11.93;;;2.92;;
20411;SDS011;10365;52.578;8.138;2023-03-15T02:02:42;7.97;;;2.58;;
20411;SDS011;10365;52.578;8.138;2023-03-15T02:05:12;12.00;;;3.50;;
20411;SDS011;10365;52.578;8.138;2023-03-15T02:07:40;16.67;;;4.10;;
20411;SDS011;10365;52.578;8.138;2023-03-15T02:10:36;10.32;;;3.33;;
20411;SDS011;10365;52.578;8.138;2023-03-15T02:13:00;9.52;;;3.90;;
20411;SDS011;10365;52.578;8.138;2023-03-15T02:15:26;12.30;;;3.70;;
20411;SDS011;10365;52.578;8.138;2023-03-15T02:17:52;13.00;;;4.10;;
20411;SDS011;10365;52.578;8.138;2023-03-15T02:20:40;6.57;;;3.45;;
20411;SDS011;10365;52.578;8.138;2023-03-15T02:23:04;9.95;;;3.90;;
20411;SDS011;10365;52.578;8.138;2023-03-15T02:28:15;13.35;;;4.20;;
20411;SDS011;10365;52.578;8.138;2023-03-15T02:30:41;12.95;;;4.35;;
20411;SDS011;10365;52.578;8.138;2023-03-15T02:33:09;9.77;;;3.13;;
20411;SDS011;10365;52.578;8.138;2023-03-15T02:35:37;14.15;;;4.53;;
20411;SDS011;10365;52.578;8.138;2023-03-15T02:38:02;11.18;;;3.38;;
20411;SDS011;10365;52.578;8.138;2023-03-15T02:40:28;9.13;;;3.42;;
20411;SDS011;10365;52.578;8.138;2023-03-15T02:42:55;10.48;;;3.92;;
20411;SDS011;10365;52.578;8.138;2023-03-15T02:45:23;9.98;;;3.72;;
20411;SDS011;10365;52.578;8.138;2023-03-15T02:47:49;12.05;;;3.92;;
20411;SDS011;10365;52.578;8.138;2023-03-15T02:50:14;11.90;;;3.55;;
20411;SDS011;10365;52.578;8.138;2023-03-15T02:52:40;8.43;;;4.47;;
20411;SDS011;10365;52.578;8.138;2023-03-15T02:55:05;9.77;;;3.53;;
20411;SDS011;10365;52.578;8.138;2023-03-15T02:57:31;11.65;;;3.58;;
20411;SDS011;10365;52.578;8.138;2023-03-15T02:59:56;6.45;;;3.25;;
20411;SDS011;10365;52.578;8.138;2023-03-15T03:02:23;7.22;;;3.10;;
20411;SDS011;10365;52.578;8.138;2023-03-15T03:04:48;10.65;;;3.60;;
20411;SDS011;10365;52.578;8.138;2023-03-15T03:07:17;9.20;;;3.17;;
20411;SDS011;10365;52.578;8.138;2023-03-15T03:09:47;11.73;;;3.30;;
20411;SDS011;10365;52.578;8.138;2023-03-15T03:12:13;4.43;;;2.78;;
20411;SDS011;10365;52.578;8.138;2023-03-15T03:14:38;12.20;;;3.25;;
20411;SDS011;10365;52.578;8.138;2023-03-15T03:17:09;15.95;;;3.75;;
20411;SDS011;10365;52.578;8.138;2023-03-15T03:19:34;9.80;;;3.30;;
20411;SDS011;10365;52.578;8.138;2023-03-15T03:22:00;6.32;;;3.13;;
20411;SDS011;10365;52.578;8.138;2023-03-15T03:24:25;8.07;;;3.42;;
20411;SDS011;10365;52.578;8.138;2023-03-15T03:26:52;10.73;;;3.13;;
20411;SDS011;10365;52.578;8.138;2023-03-15T03:29:23;8.75;;;3.38;;
20411;SDS011;10365;52.578;8.138;2023-03-15T03:31:49;8.98;;;3.13;;
20411;SDS011;10365;52.578;8.138;2023-03-15T03:34:15;7.13;;;3.20;;
20411;SDS011;10365;52.578;8.138;2023-03-15T03:36:41;18.85;;;3.88;;
20411;SDS011;10365;52.578;8.138;2023-03-15T03:39:08;7.85;;;3.13;;
20411;SDS011;10365;52.578;8.138;2023-03-15T03:41:33;11.00;;;2.97;;
20411;SDS011;10365;52.578;8.138;2023-03-15T03:43:58;8.10;;;2.83;;
20411;SDS011;10365;52.578;8.138;2023-03-15T03:46:24;7.97;;;3.17;;
20411;SDS011;10365;52.578;8.138;2023-03-15T03:48:51;11.10;;;3.08;;
20411;SDS011;10365;52.578;8.138;2023-03-15T03:51:16;10.57;;;3.25;;
20411;SDS011;10365;52.578;8.138;2023-03-15T03:53:42;12.90;;;3.03;;
20411;SDS011;10365;52.578;8.138;2023-03-15T03:56:07;8.70;;;3.05;;
20411;SDS011;10365;52.578;8.138;2023-03-15T03:58:34;9.68;;;2.78;;
20411;SDS011;10365;52.578;8.138;2023-03-15T04:01:09;7.35;;;3.00;;
20411;SDS011;10365;52.578;8.138;2023-03-15T04:03:37;9.43;;;3.00;;
20411;SDS011;10365;52.578;8.138;2023-03-15T04:06:07;10.25;;;3.50;;
20411;SDS011;10365;52.578;8.138;2023-03-15T04:08:37;10.85;;;3.65;;
20411;SDS011;10365;52.578;8.138;2023-03-15T04:11:03;9.05;;;3.20;;
20411;SDS011;10365;52.578;8.138;2023-03-15T04:13:29;6.07;;;3.25;;
20411;SDS011;10365;52.578;8.138;2023-03-15T04:15:58;9.82;;;3.05;;
20411;SDS011;10365;52.578;8.138;2023-03-15T04:18:30;6.82;;;3.25;;
20411;SDS011;10365;52.578;8.138;2023-03-15T04:20:55;6.25;;;3.08;;
20411;SDS011;10365;52.578;8.138;2023-03-15T04:23:22;7.38;;;2.55;;
20411;SDS011;10365;52.578;8.138;2023-03-15T04:26:09;8.98;;;2.72;;
20411;SDS011;10365;52.578;8.138;2023-03-15T04:28:54;10.50;;;3.40;;
20411;SDS011;10365;52.578;8.138;2023-03-15T04:31:43;5.07;;;2.45;;
20411;SDS011;10365;52.578;8.138;2023-03-15T04:34:18;10.52;;;3.13;;
20411;SDS011;10365;52.578;8.138;2023-03-15T04:37:10;3.75;;;2.15;;
20411;SDS011;10365;52.578;8.138;2023-03-15T04:40:05;9.57;;;2.85;;
20411;SDS011;10365;52.578;8.138;2023-03-15T04:42:55;11.93;;;2.80;;
20411;SDS011;10365;52.578;8.138;2023-03-15T04:45:24;5.63;;;2.53;;
20411;SDS011;10365;52.578;8.138;2023-03-15T04:48:02;6.00;;;2.67;;
20411;SDS011;10365;52.578;8.138;2023-03-15T04:50:58;6.00;;;2.03;;
20411;SDS011;10365;52.578;8.138;2023-03-15T04:53:39;10.45;;;2.38;;
20411;SDS011;10365;52.578;8.138;2023-03-15T04:56:24;4.65;;;1.83;;
20411;SDS011;10365;52.578;8.138;2023-03-15T04:59:13;7.45;;;2.20;;
20411;SDS011;10365;52.578;8.138;2023-03-15T05:01:50;7.22;;;2.15;;
20411;SDS011;10365;52.578;8.138;2023-03-15T05:04:33;8.30;;;2.45;;
20411;SDS011;10365;52.578;8.138;2023-03-15T05:07:17;5.25;;;2.70;;
20411;SDS011;10365;52.578;8.138;2023-03-15T05:10:03;7.82;;;2.42;;
20411;SDS011;10365;52.578;8.138;2023-03-15T05:12:49;10.43;;;2.53;;
20411;SDS011;10365;52.578;8.138;2023-03-15T05:15:23;8.27;;;2.35;;
20411;SDS011;10365;52.578;8.138;2023-03-15T05:18:11;7.70;;;1.90;;
20411;SDS011;10365;52.578;8.138;2023-03-15T05:20:55;9.05;;;2.40;;
20411;SDS011;10365;52.578;8.138;2023-03-15T05:23:30;9.50;;;2.25;;
20411;SDS011;10365;52.578;8.138;2023-03-15T05:26:22;9.65;;;2.40;;
20411;SDS011;10365;52.578;8.138;2023-03-15T05:29:14;6.88;;;2.38;;
20411;SDS011;10365;52.578;8.138;2023-03-15T05:31:57;8.90;;;2.13;;
20411;SDS011;10365;52.578;8.138;2023-03-15T05:34:31;8.93;;;1.92;;
20411;SDS011;10365;52.578;8.138;2023-03-15T05:37:16;9.10;;;2.45;;
20411;SDS011;10365;52.578;8.138;2023-03-15T05:39:56;6.32;;;2.05;;
20411;SDS011;10365;52.578;8.138;2023-03-15T05:42:42;10.20;;;1.77;;
20411;SDS011;10365;52.578;8.138;2023-03-15T05:45:19;9.45;;;2.45;;
20411;SDS011;10365;52.578;8.138;2023-03-15T05:48:09;6.45;;;2.47;;
20411;SDS011;10365;52.578;8.138;2023-03-15T05:50:52;8.70;;;2.38;;
20411;SDS011;10365;52.578;8.138;2023-03-15T05:53:50;12.63;;;2.72;;
20411;SDS011;10365;52.578;8.138;2023-03-15T05:56:53;9.38;;;2.30;;
20411;SDS011;10365;52.578;8.138;2023-03-15T05:59:36;6.93;;;2.35;;
20411;SDS011;10365;52.578;8.138;2023-03-15T06:02:22;9.02;;;2.72;;
20411;SDS011;10365;52.578;8.138;2023-03-15T06:05:06;6.13;;;2.15;;
20411;SDS011;10365;52.578;8.138;2023-03-15T06:07:32;6.70;;;2.35;;
20411;SDS011;10365;52.578;8.138;2023-03-15T06:09:57;11.07;;;2.50;;
20411;SDS011;10365;52.578;8.138;2023-03-15T06:12:24;11.85;;;2.28;;
20411;SDS011;10365;52.578;8.138;2023-03-15T06:14:50;9.40;;;3.25;;
20411;SDS011;10365;52.578;8.138;2023-03-15T06:17:15;11.73;;;3.05;;
20411;SDS011;10365;52.578;8.138;2023-03-15T06:19:42;8.05;;;2.35;;
20411;SDS011;10365;52.578;8.138;2023-03-15T06:22:08;5.57;;;2.70;;
20411;SDS011;10365;52.578;8.138;2023-03-15T06:24:41;14.57;;;3.05;;
20411;SDS011;10365;52.578;8.138;2023-03-15T06:27:06;9.50;;;2.60;;
20411;SDS011;10365;52.578;8.138;2023-03-15T06:29:34;7.13;;;2.60;;
20411;SDS011;10365;52.578;8.138;2023-03-15T06:32:00;9.23;;;2.25;;
20411;SDS011;10365;52.578;8.138;2023-03-15T06:34:26;13.05;;;2.90;;
20411;SDS011;10365;52.578;8.138;2023-03-15T06:36:52;7.25;;;2.40;;
20411;SDS011;10365;52.578;8.138;2023-03-15T06:39:18;6.68;;;2.50;;
20411;SDS011;10365;52.578;8.138;2023-03-15T06:41:43;10.50;;;2.45;;
20411;SDS011;10365;52.578;8.138;2023-03-15T06:44:15;12.95;;;3.30;;
20411;SDS011;10365;52.578;8.138;2023-03-15T06:46:40;8.65;;;2.42;;
20411;SDS011;10365;52.578;8.138;2023-03-15T06:49:06;12.23;;;2.00;;
20411;SDS011;10365;52.578;8.138;2023-03-15T06:51:31;5.63;;;2.40;;
20411;SDS011;10365;52.578;8.138;2023-03-15T06:53:57;7.00;;;2.40;;
20411;SDS011;10365;52.578;8.138;2023-03-15T06:56:22;16.55;;;2.17;;
20411;SDS011;10365;52.578;8.138;2023-03-15T06:58:48;14.52;;;2.35;;
20411;SDS011;10365;52.578;8.138;2023-03-15T07:01:13;12.05;;;2.33;;
20411;SDS011;10365;52.578;8.138;2023-03-15T07:03:40;6.10;;;1.85;;
20411;SDS011;10365;52.578;8.138;2023-03-15T07:06:06;14.20;;;2.35;;
20411;SDS011;10365;52.578;8.138;2023-03-15T07:08:31;11.35;;;2.65;;
20411;SDS011;10365;52.578;8.138;2023-03-15T07:10:57;9.40;;;1.90;;
20411;SDS011;10365;52.578;8.138;2023-03-15T07:13:22;6.20;;;1.98;;
20411;SDS011;10365;52.578;8.138;2023-03-15T07:15:54;7.80;;;2.03;;
20411;SDS011;10365;52.578;8.138;2023-03-15T07:18:20;11.00;;;1.75;;
20411;SDS011;10365;52.578;8.138;2023-03-15T07:20:46;12.32;;;2.65;;
20411;SDS011;10365;52.578;8.138;2023-03-15T07:23:11;11.20;;;1.88;;
20411;SDS011;10365;52.578;8.138;2023-03-15T07:25:36;8.98;;;1.77;;
20411;SDS011;10365;52.578;8.138;2023-03-15T07:28:02;13.13;;;2.13;;
20411;SDS011;10365;52.578;8.138;2023-03-15T07:30:27;11.52;;;2.00;;
20411;SDS011;10365;52.578;8.138;2023-03-15T07:32:52;9.15;;;1.63;;
20411;SDS011;10365;52.578;8.138;2023-03-15T07:35:18;11.73;;;1.75;;
20411;SDS011;10365;52.578;8.138;2023-03-15T07:37:43;12.77;;;2.00;;
20411;SDS011;10365;52.578;8.138;2023-03-15T07:40:09;9.82;;;1.67;;
20411;SDS011;10365;52.578;8.138;2023-03-15T07:42:35;7.60;;;1.63;;
20411;SDS011;10365;52.578;8.138;2023-03-15T07:45:01;4.57;;;1.02;;
20411;SDS011;10365;52.578;8.138;2023-03-15T07:47:26;9.98;;;1.35;;
20411;SDS011;10365;52.578;8.138;2023-03-15T07:49:52;8.93;;;1.23;;
20411;SDS011;10365;52.578;8.138;2023-03-15T07:52:18;7.00;;;1.60;;
20411;SDS011;10365;52.578;8.138;2023-03-15T07:54:45;5.60;;;1.42;;
20411;SDS011;10365;52.578;8.138;2023-03-15T07:57:11;13.73;;;1.83;;
20411;SDS011;10365;52.578;8.138;2023-03-15T07:59:36;3.80;;;1.15;;
20411;SDS011;10365;52.578;8.138;2023-03-15T08:02:02;6.53;;;1.23;;
20411;SDS011;10365;52.578;8.138;2023-03-15T08:04:27;2.78;;;0.93;;
20411;SDS011;10365;52.578;8.138;2023-03-15T08:06:52;9.10;;;1.13;;
20411;SDS011;10365;52.578;8.138;2023-03-15T08:09:18;6.70;;;1.40;;
20411;SDS011;10365;52.578;8.138;2023-03-15T08:11:43;5.60;;;0.98;;
20411;SDS011;10365;52.578;8.138;2023-03-15T08:14:08;5.03;;;1.35;;
20411;SDS011;10365;52.578;8.138;2023-03-15T08:16:34;4.30;;;1.33;;
20411;SDS011;10365;52.578;8.138;2023-03-15T08:18:59;6.63;;;0.95;;
20411;SDS011;10365;52.578;8.138;2023-03-15T08:21:24;4.82;;;1.10;;
20411;SDS011;10365;52.578;8.138;2023-03-15T08:23:50;8.82;;;1.08;;
20411;SDS011;10365;52.578;8.138;2023-03-15T08:26:15;4.97;;;0.80;;
20411;SDS011;10365;52.578;8.138;2023-03-15T08:28:40;6.88;;;0.90;;
20411;SDS011;10365;52.578;8.138;2023-03-15T08:31:06;6.95;;;1.25;;
20411;SDS011;10365;52.578;8.138;2023-03-15T08:33:32;8.82;;;0.88;;
20411;SDS011;10365;52.578;8.138;2023-03-15T08:35:57;10.23;;;0.98;;
20411;SDS011;10365;52.578;8.138;2023-03-15T08:38:22;5.07;;;1.08;;
20411;SDS011;10365;52.578;8.138;2023-03-15T08:40:48;11.15;;;1.15;;
20411;SDS011;10365;52.578;8.138;2023-03-15T08:43:13;5.35;;;1.10;;
20411;SDS011;10365;52.578;8.138;2023-03-15T08:45:38;5.78;;;1.00;;
20411;SDS011;10365;52.578;8.138;2023-03-15T08:48:04;8.00;;;1.13;;
20411;SDS011;10365;52.578;8.138;2023-03-15T08:50:29;12.88;;;1.25;;
20411;SDS011;10365;52.578;8.138;2023-03-15T08:52:57;6.80;;;0.73;;
20411;SDS011;10365;52.578;8.138;2023-03-15T08:55:23;8.30;;;0.95;;
20411;SDS011;10365;52.578;8.138;2023-03-15T08:57:48;7.65;;;1.30;;
20411;SDS011;10365;52.578;8.138;2023-03-15T09:00:14;14.05;;;1.20;;
20411;SDS011;10365;52.578;8.138;2023-03-15T09:02:45;7.00;;;1.10;;
20411;SDS011;10365;52.578;8.138;2023-03-15T09:05:12;5.85;;;0.68;;
20411;SDS011;10365;52.578;8.138;2023-03-15T09:07:38;4.35;;;0.98;;
20411;SDS011;10365;52.578;8.138;2023-03-15T09:10:04;4.40;;;0.88;;
20411;SDS011;10365;52.578;8.138;2023-03-15T09:12:29;6.78;;;0.85;;
20411;SDS011;10365;52.578;8.138;2023-03-15T09:14:55;10.80;;;1.23;;
20411;SDS011;10365;52.578;8.138;2023-03-15T09:17:20;5.82;;;0.82;;
20411;SDS011;10365;52.578;8.138;2023-03-15T09:19:45;4.38;;;0.82;;
20411;SDS011;10365;52.578;8.138;2023-03-15T09:22:11;10.88;;;1.10;;
20411;SDS011;10365;52.578;8.138;2023-03-15T09:24:36;4.72;;;0.80;;
20411;SDS011;10365;52.578;8.138;2023-03-15T09:27:02;4.40;;;1.33;;
20411;SDS011;10365;52.578;8.138;2023-03-15T09:29:27;5.82;;;1.10;;
20411;SDS011;10365;52.578;8.138;2023-03-15T09:31:53;6.47;;;0.93;;
20411;SDS011;10365;52.578;8.138;2023-03-15T09:34:18;6.13;;;1.45;;
20411;SDS011;10365;52.578;8.138;2023-03-15T09:36:44;11.18;;;1.10;;
20411;SDS011;10365;52.578;8.138;2023-03-15T09:39:17;7.95;;;1.25;;
20411;SDS011;10365;52.578;8.138;2023-03-15T09:41:52;2.88;;;0.70;;
20411;SDS011;10365;52.578;8.138;2023-03-15T09:54:04;4.63;;;0.88;;
20411;SDS011;10365;52.578;8.138;2023-03-15T09:59:08;4.75;;;1.08;;
20411;SDS011;10365;52.578;8.138;2023-03-15T10:01:43;4.93;;;0.70;;
20411;SDS011;10365;52.578;8.138;2023-03-15T10:04:24;9.30;;;1.35;;
20411;SDS011;10365;52.578;8.138;2023-03-15T10:07:05;3.05;;;0.70;;
20411;SDS011;10365;52.578;8.138;2023-03-15T10:09:34;5.85;;;1.15;;
20411;SDS011;10365;52.578;8.138;2023-03-15T10:12:15;6.70;;;1.05;;
20411;SDS011;10365;52.578;8.138;2023-03-15T10:20:11;3.42;;;0.85;;
20411;SDS011;10365;52.578;8.138;2023-03-15T10:25:29;6.32;;;0.63;;
20411;SDS011;10365;52.578;8.138;2023-03-15T10:28:03;5.68;;;0.70;;
20411;SDS011;10365;52.578;8.138;2023-03-15T10:30:35;7.88;;;1.15;;
20411;SDS011;10365;52.578;8.138;2023-03-15T10:33:30;7.65;;;0.88;;
20411;SDS011;10365;52.578;8.138;2023-03-15T10:36:00;5.18;;;1.05;;
20411;SDS011;10365;52.578;8.138;2023-03-15T10:38:35;8.07;;;0.90;;
20411;SDS011;10365;52.578;8.138;2023-03-15T10:41:05;4.90;;;0.77;;
20411;SDS011;10365;52.578;8.138;2023-03-15T10:43:38;3.25;;;0.63;;
20411;SDS011;10365;52.578;8.138;2023-03-15T10:46:10;4.28;;;0.90;;
20411;SDS011;10365;52.578;8.138;2023-03-15T10:49:06;4.97;;;0.57;;
20411;SDS011;10365;52.578;8.138;2023-03-15T10:51:41;7.50;;;1.10;;
20411;SDS011;10365;52.578;8.138;2023-03-15T10:54:14;5.63;;;1.00;;
20411;SDS011;10365;52.578;8.138;2023-03-15T10:59:36;2.72;;;0.68;;
20411;SDS011;10365;52.578;8.138;2023-03-15T11:07:53;3.53;;;0.80;;
20411;SDS011;10365;52.578;8.138;2023-03-15T11:10:26;4.65;;;0.70;;
20411;SDS011;10365;52.578;8.138;2023-03-15T11:13:16;4.50;;;0.95;;
20411;SDS011;10365;52.578;8.138;2023-03-15T11:18:51;7.10;;;1.17;;
20411;SDS011;10365;52.578;8.138;2023-03-15T11:21:22;6.20;;;1.08;;
20411;SDS011;10365;52.578;8.138;2023-03-15T11:23:53;6.10;;;0.85;;
20411;SDS011;10365;52.578;8.138;2023-03-15T11:26:26;3.83;;;0.65;;
20411;SDS011;10365;52.578;8.138;2023-03-15T11:28:55;3.03;;;0.80;;
20411;SDS011;10365;52.578;8.138;2023-03-15T11:31:48;8.27;;;1.98;;
20411;SDS011;10365;52.578;8.138;2023-03-15T11:36:51;3.47;;;0.70;;
20411;SDS011;10365;52.578;8.138;2023-03-15T11:42:24;4.05;;;0.70;;
20411;SDS011;10365;52.578;8.138;2023-03-15T11:45:11;2.28;;;0.40;;
20411;SDS011;10365;52.578;8.138;2023-03-15T11:47:46;3.08;;;0.50;;
20411;SDS011;10365;52.578;8.138;2023-03-15T11:50:23;1.75;;;0.30;;
20411;SDS011;10365;52.578;8.138;2023-03-15T11:53:14;4.13;;;0.40;;
20411;SDS011;10365;52.578;8.138;2023-03-15T11:56:01;1.17;;;0.20;;
20411;SDS011;10365;52.578;8.138;2023-03-15T11:58:34;2.08;;;0.50;;
20411;SDS011;10365;52.578;8.138;2023-03-15T12:04:29;1.75;;;0.60;;
20411;SDS011;10365;52.578;8.138;2023-03-15T12:12:46;2.03;;;0.45;;
20411;SDS011;10365;52.578;8.138;2023-03-15T12:17:59;4.53;;;0.57;;
20411;SDS011;10365;52.578;8.138;2023-03-15T12:20:37;2.08;;;0.55;;
20411;SDS011;10365;52.578;8.138;2023-03-15T12:31:13;1.30;;;0.57;;
20411;SDS011;10365;52.578;8.138;2023-03-15T12:41:41;2.30;;;0.63;;
20411;SDS011;10365;52.578;8.138;2023-03-15T12:46:54;1.77;;;0.60;;
20411;SDS011;10365;52.578;8.138;2023-03-15T12:55:09;2.25;;;0.52;;
20411;SDS011;10365;52.578;8.138;2023-03-15T12:57:49;2.45;;;0.70;;
20411;SDS011;10365;52.578;8.138;2023-03-15T13:00:20;3.10;;;0.77;;
20411;SDS011;10365;52.578;8.138;2023-03-15T13:02:57;1.85;;;0.70;;
20411;SDS011;10365;52.578;8.138;2023-03-15T13:05:42;5.20;;;0.90;;
20411;SDS011;10365;52.578;8.138;2023-03-15T13:08:19;3.47;;;0.77;;
20411;SDS011;10365;52.578;8.138;2023-03-15T13:13:56;3.35;;;0.60;;
20411;SDS011;10365;52.578;8.138;2023-03-15T13:16:48;8.85;;;0.80;;
20411;SDS011;10365;52.578;8.138;2023-03-15T13:19:48;4.93;;;0.60;;
20411;SDS011;10365;52.578;8.138;2023-03-15T13:22:33;7.60;;;1.00;;
20411;SDS011;10365;52.578;8.138;2023-03-15T13:26:20;4.95;;;0.70;;
20411;SDS011;10365;52.578;8.138;2023-03-15T13:31:21;2.28;;;0.65;;
20411;SDS011;10365;52.578;8.138;2023-03-15T13:33:52;5.53;;;0.82;;
20411;SDS011;10365;52.578;8.138;2023-03-15T13:36:44;6.82;;;0.80;;
20411;SDS011;10365;52.578;8.138;2023-03-15T13:39:18;2.47;;;0.70;;
20411;SDS011;10365;52.578;8.138;2023-03-15T13:50:40;5.15;;;1.10;;
20411;SDS011;10365;52.578;8.138;2023-03-15T13:53:06;1.67;;;1.00;;
20411;SDS011;10365;52.578;8.138;2023-03-15T13:55:41;2.88;;;1.25;;
20411;SDS011;10365;52.578;8.138;2023-03-15T13:58:29;3.13;;;1.20;;
20411;SDS011;10365;52.578;8.138;2023-03-15T14:01:00;3.22;;;1.10;;
20411;SDS011;10365;52.578;8.138;2023-03-15T14:03:28;3.45;;;0.75;;
20411;SDS011;10365;52.578;8.138;2023-03-15T14:06:12;3.10;;;1.00;;
20411;SDS011;10365;52.578;8.138;2023-03-15T14:09:07;4.68;;;1.10;;
20411;SDS011;10365;52.578;8.138;2023-03-15T14:11:55;3.72;;;1.00;;
20411;SDS011;10365;52.578;8.138;2023-03-15T14:14:25;8.57;;;1.20;;
20411;SDS011;10365;52.578;8.138;2023-03-15T14:16:58;2.88;;;0.90;;
20411;SDS011;10365;52.578;8.138;2023-03-15T14:19:36;6.45;;;0.80;;
20411;SDS011;10365;52.578;8.138;2023-03-15T14:22:20;4.03;;;1.00;;
20411;SDS011;10365;52.578;8.138;2023-03-15T14:24:56;1.73;;;0.70;;
20411;SDS011;10365;52.578;8.138;2023-03-15T14:27:29;4.50;;;0.88;;
20411;SDS011;10365;52.578;8.138;2023-03-15T14:30:16;5.40;;;0.77;;
20411;SDS011;10365;52.578;8.138;2023-03-15T14:33:06;3.75;;;0.77;;
20411;SDS011;10365;52.578;8.138;2023-03-15T14:38:25;3.53;;;1.38;;
20411;SDS011;10365;52.578;8.138;2023-03-15T14:41:08;8.32;;;1.23;;
20411;SDS011;10365;52.578;8.138;2023-03-15T14:43:38;4.50;;;1.48;;
20411;SDS011;10365;52.578;8.138;2023-03-15T14:46:08;2.92;;;0.90;;
20411;SDS011;10365;52.578;8.138;2023-03-15T14:48:43;4.78;;;1.30;;
20411;SDS011;10365;52.578;8.138;2023-03-15T14:51:23;3.90;;;1.10;;
20411;SDS011;10365;52.578;8.138;2023-03-15T14:53:59;3.05;;;0.90;;
20411;SDS011;10365;52.578;8.138;2023-03-15T14:56:32;7.63;;;1.83;;
20411;SDS011;10365;52.578;8.138;2023-03-15T14:59:01;6.30;;;1.73;;
20411;SDS011;10365;52.578;8.138;2023-03-15T15:01:39;8.77;;;1.65;;
20411;SDS011;10365;52.578;8.138;2023-03-15T15:04:08;5.30;;;1.45;;
20411;SDS011;10365;52.578;8.138;2023-03-15T15:06:45;4.30;;;0.90;;
20411;SDS011;10365;52.578;8.138;2023-03-15T15:09:22;3.72;;;0.98;;
20411;SDS011;10365;52.578;8.138;2023-03-15T15:11:53;5.25;;;0.90;;
20411;SDS011;10365;52.578;8.138;2023-03-15T15:14:25;3.75;;;0.90;;
20411;SDS011;10365;52.578;8.138;2023-03-15T15:16:59;2.25;;;0.70;;
20411;SDS011;10365;52.578;8.138;2023-03-15T15:19:36;5.15;;;0.93;;
20411;SDS011;10365;52.578;8.138;2023-03-15T15:22:15;2.67;;;1.10;;
20411;SDS011;10365;52.578;8.138;2023-03-15T15:24:43;5.47;;;1.30;;
20411;SDS011;10365;52.578;8.138;2023-03-15T15:27:21;4.10;;;1.05;;
20411;SDS011;10365;52.578;8.138;2023-03-15T15:29:52;4.28;;;1.10;;
20411;SDS011;10365;52.578;8.138;2023-03-15T15:32:34;4.28;;;0.88;;
20411;SDS011;10365;52.578;8.138;2023-03-15T15:35:05;8.50;;;1.42;;
20411;SDS011;10365;52.578;8.138;2023-03-15T15:37:34;3.38;;;0.90;;
20411;SDS011;10365;52.578;8.138;2023-03-15T15:40:06;6.05;;;1.23;;
20411;SDS011;10365;52.578;8.138;2023-03-15T15:42:56;6.05;;;1.08;;
20411;SDS011;10365;52.578;8.138;2023-03-15T15:45:30;3.25;;;0.75;;
20411;SDS011;10365;52.578;8.138;2023-03-15T15:47:59;5.55;;;1.60;;
20411;SDS011;10365;52.578;8.138;2023-03-15T15:50:35;6.15;;;2.53;;
20411;SDS011;10365;52.578;8.138;2023-03-15T15:53:06;7.65;;;2.80;;
20411;SDS011;10365;52.578;8.138;2023-03-15T15:55:33;4.90;;;2.38;;
20411;SDS011;10365;52.578;8.138;2023-03-15T15:58:08;7.30;;;3.60;;
20411;SDS011;10365;52.578;8.138;2023-03-15T16:00:40;3.35;;;1.30;;
20411;SDS011;10365;52.578;8.138;2023-03-15T16:03:15;5.00;;;1.50;;
20411;SDS011;10365;52.578;8.138;2023-03-15T16:05:47;4.03;;;1.67;;
20411;SDS011;10365;52.578;8.138;2023-03-15T16:08:28;4.85;;;1.95;;
20411;SDS011;10365;52.578;8.138;2023-03-15T16:10:59;3.47;;;1.02;;
20411;SDS011;10365;52.578;8.138;2023-03-15T16:13:47;3.58;;;1.10;;
20411;SDS011;10365;52.578;8.138;2023-03-15T16:16:16;4.50;;;0.98;;
20411;SDS011;10365;52.578;8.138;2023-03-15T16:18:44;8.65;;;3.83;;
20411;SDS011;10365;52.578;8.138;2023-03-15T16:21:36;10.35;;;3.22;;
20411;SDS011;10365;52.578;8.138;2023-03-15T16:24:25;8.25;;;2.38;;
20411;SDS011;10365;52.578;8.138;2023-03-15T16:27:00;7.60;;;3.42;;
20411;SDS011;10365;52.578;8.138;2023-03-15T16:29:38;7.68;;;1.67;;
20411;SDS011;10365;52.578;8.138;2023-03-15T16:32:14;8.43;;;2.17;;
20411;SDS011;10365;52.578;8.138;2023-03-15T16:34:43;7.20;;;2.00;;
20411;SDS011;10365;52.578;8.138;2023-03-15T16:37:23;2.63;;;1.00;;
20411;SDS011;10365;52.578;8.138;2023-03-15T16:39:56;3.78;;;0.80;;
20411;SDS011;10365;52.578;8.138;2023-03-15T16:42:38;5.28;;;1.70;;
20411;SDS011;10365;52.578;8.138;2023-03-15T16:45:12;2.20;;;1.15;;
20411;SDS011;10365;52.578;8.138;2023-03-15T16:47:54;5.88;;;1.10;;
20411;SDS011;10365;52.578;8.138;2023-03-15T16:50:28;6.28;;;2.58;;
20411;SDS011;10365;52.578;8.138;2023-03-15T16:53:04;6.50;;;1.92;;